Terminal Aerodrome Forecast
Issued by NWS Sterling, VA

Current Version | Previous Version | Graphics & Text | Print | Product List | Glossary On
Versions: 1 2 3 4 5 6 7 8 9 10 11 12 13 14 15 16 17 18 19 20 21 22 23
000
FTUS41 KLWX 201100
TAFDCA
TAF
KDCA 201137Z 2012/2112 16004KT P6SM BKN015 BKN050
     FM201400 16005KT P6SM BKN050
     FM202000 16005KT P6SM VCTS BKN050CB
     FM210100 15005KT P6SM BKN050
     FM210600 VRB03KT P6SM OVC015=

USA.gov is the U.S. government's official web portal to all federal, state and local government web resources and services.